sensor_id;sensor_type;location;lat;lon;timestamp;temperature;humidity
1570;DHT22;778;50.120;8.698;2023-11-19T00:01:19;9.00;99.90
1570;DHT22;778;50.120;8.698;2023-11-19T00:03:48;9.00;99.90
1570;DHT22;778;50.120;8.698;2023-11-19T00:06:17;9.10;99.90
1570;DHT22;778;50.120;8.698;2023-11-19T00:08:47;9.20;99.90
1570;DHT22;778;50.120;8.698;2023-11-19T00:11:15;9.20;99.90
1570;DHT22;778;50.120;8.698;2023-11-19T00:13:43;9.10;99.90
1570;DHT22;778;50.120;8.698;2023-11-19T00:16:11;9.10;99.90
1570;DHT22;778;50.120;8.698;2023-11-19T00:18:40;9.10;99.90
1570;DHT22;778;50.120;8.698;2023-11-19T00:21:08;9.00;99.90
1570;DHT22;778;50.120;8.698;2023-11-19T00:23:37;9.00;99.90
1570;DHT22;778;50.120;8.698;2023-11-19T00:26:07;9.00;99.90
1570;DHT22;778;50.120;8.698;2023-11-19T00:28:36;9.00;99.90
1570;DHT22;778;50.120;8.698;2023-11-19T00:31:06;9.00;99.90
1570;DHT22;778;50.120;8.698;2023-11-19T00:33:34;8.90;99.90
1570;DHT22;778;50.120;8.698;2023-11-19T00:36:16;8.90;99.90
1570;DHT22;778;50.120;8.698;2023-11-19T00:38:44;9.00;99.90
1570;DHT22;778;50.120;8.698;2023-11-19T00:41:15;8.90;99.90
1570;DHT22;778;50.120;8.698;2023-11-19T00:43:43;9.10;99.90
1570;DHT22;778;50.120;8.698;2023-11-19T00:46:12;9.10;99.90
1570;DHT22;778;50.120;8.698;2023-11-19T00:48:41;9.10;99.90
1570;DHT22;778;50.120;8.698;2023-11-19T00:51:11;9.10;99.90
1570;DHT22;778;50.120;8.698;2023-11-19T00:53:40;9.10;99.90
1570;DHT22;778;50.120;8.698;2023-11-19T00:56:08;9.10;99.90
1570;DHT22;778;50.120;8.698;2023-11-19T00:58:40;9.10;99.90
1570;DHT22;778;50.120;8.698;2023-11-19T01:01:09;9.10;99.90
1570;DHT22;778;50.120;8.698;2023-11-19T01:03:39;9.00;99.90
1570;DHT22;778;50.120;8.698;2023-11-19T01:06:08;9.00;99.90
1570;DHT22;778;50.120;8.698;2023-11-19T01:08:36;9.00;99.90
1570;DHT22;778;50.120;8.698;2023-11-19T01:11:04;9.00;99.90
1570;DHT22;778;50.120;8.698;2023-11-19T01:13:32;9.00;99.90
1570;DHT22;778;50.120;8.698;2023-11-19T01:16:02;9.00;99.90
1570;DHT22;778;50.120;8.698;2023-11-19T01:18:31;9.00;99.90
1570;DHT22;778;50.120;8.698;2023-11-19T01:20:59;9.00;99.90
1570;DHT22;778;50.120;8.698;2023-11-19T01:23:27;9.00;99.90
1570;DHT22;778;50.120;8.698;2023-11-19T01:25:55;9.00;99.90
1570;DHT22;778;50.120;8.698;2023-11-19T01:28:24;9.00;99.90
1570;DHT22;778;50.120;8.698;2023-11-19T01:30:52;9.00;99.90
1570;DHT22;778;50.120;8.698;2023-11-19T01:33:22;9.10;99.90
1570;DHT22;778;50.120;8.698;2023-11-19T01:35:50;9.10;99.90
1570;DHT22;778;50.120;8.698;2023-11-19T01:38:18;9.10;99.90
1570;DHT22;778;50.120;8.698;2023-11-19T01:40:47;9.10;99.90
1570;DHT22;778;50.120;8.698;2023-11-19T01:43:33;9.20;99.90
1570;DHT22;778;50.120;8.698;2023-11-19T01:46:03;9.10;99.90
1570;DHT22;778;50.120;8.698;2023-11-19T01:48:34;9.20;99.90
1570;DHT22;778;50.120;8.698;2023-11-19T01:51:04;9.20;99.90
1570;DHT22;778;50.120;8.698;2023-11-19T01:53:34;9.20;99.90
1570;DHT22;778;50.120;8.698;2023-11-19T01:56:04;9.20;99.90
1570;DHT22;778;50.120;8.698;2023-11-19T01:58:33;9.30;99.90
1570;DHT22;778;50.120;8.698;2023-11-19T02:01:01;9.30;99.90
1570;DHT22;778;50.120;8.698;2023-11-19T02:03:31;9.30;99.90
1570;DHT22;778;50.120;8.698;2023-11-19T02:06:03;9.30;99.90
1570;DHT22;778;50.120;8.698;2023-11-19T02:08:31;9.40;99.90
1570;DHT22;778;50.120;8.698;2023-11-19T02:10:59;9.30;99.90
1570;DHT22;778;50.120;8.698;2023-11-19T02:13:29;9.40;99.90
1570;DHT22;778;50.120;8.698;2023-11-19T02:15:57;9.50;99.90
1570;DHT22;778;50.120;8.698;2023-11-19T02:18:27;9.50;99.90
1570;DHT22;778;50.120;8.698;2023-11-19T02:20:56;9.50;99.90
1570;DHT22;778;50.120;8.698;2023-11-19T02:23:27;9.50;99.90
1570;DHT22;778;50.120;8.698;2023-11-19T02:26:03;9.60;99.90
1570;DHT22;778;50.120;8.698;2023-11-19T02:28:34;9.60;99.90
1570;DHT22;778;50.120;8.698;2023-11-19T02:31:04;9.60;99.90
1570;DHT22;778;50.120;8.698;2023-11-19T02:33:37;9.60;99.90
1570;DHT22;778;50.120;8.698;2023-11-19T02:36:06;9.60;99.90
1570;DHT22;778;50.120;8.698;2023-11-19T02:38:35;9.60;99.90
1570;DHT22;778;50.120;8.698;2023-11-19T02:41:04;9.70;99.90
1570;DHT22;778;50.120;8.698;2023-11-19T02:43:35;9.70;99.90
1570;DHT22;778;50.120;8.698;2023-11-19T02:46:06;9.70;99.90
1570;DHT22;778;50.120;8.698;2023-11-19T02:48:38;9.70;99.90
1570;DHT22;778;50.120;8.698;2023-11-19T02:51:06;9.70;99.90
1570;DHT22;778;50.120;8.698;2023-11-19T02:53:36;9.70;99.90
1570;DHT22;778;50.120;8.698;2023-11-19T02:56:07;9.80;99.90
1570;DHT22;778;50.120;8.698;2023-11-19T02:58:48;9.80;99.90
1570;DHT22;778;50.120;8.698;2023-11-19T03:01:22;9.80;99.90
1570;DHT22;778;50.120;8.698;2023-11-19T03:03:57;9.80;99.90
1570;DHT22;778;50.120;8.698;2023-11-19T03:06:27;9.80;99.90
1570;DHT22;778;50.120;8.698;2023-11-19T03:08:56;9.80;99.90
1570;DHT22;778;50.120;8.698;2023-11-19T03:11:24;9.80;99.90
1570;DHT22;778;50.120;8.698;2023-11-19T03:13:54;9.80;99.90
1570;DHT22;778;50.120;8.698;2023-11-19T03:16:22;9.70;99.90
1570;DHT22;778;50.120;8.698;2023-11-19T03:18:50;9.70;99.90
1570;DHT22;778;50.120;8.698;2023-11-19T03:21:19;9.80;99.90
1570;DHT22;778;50.120;8.698;2023-11-19T03:23:47;9.80;99.90
1570;DHT22;778;50.120;8.698;2023-11-19T03:26:16;9.80;99.90
1570;DHT22;778;50.120;8.698;2023-11-19T03:28:44;9.80;99.90
1570;DHT22;778;50.120;8.698;2023-11-19T03:31:14;9.80;99.90
1570;DHT22;778;50.120;8.698;2023-11-19T03:33:42;9.90;99.90
1570;DHT22;778;50.120;8.698;2023-11-19T03:36:10;9.80;99.90
1570;DHT22;778;50.120;8.698;2023-11-19T03:38:39;9.80;99.90
1570;DHT22;778;50.120;8.698;2023-11-19T03:41:13;9.80;99.90
1570;DHT22;778;50.120;8.698;2023-11-19T03:43:41;9.80;99.90
1570;DHT22;778;50.120;8.698;2023-11-19T03:46:17;9.80;99.90
1570;DHT22;778;50.120;8.698;2023-11-19T03:48:46;9.80;99.90
1570;DHT22;778;50.120;8.698;2023-11-19T03:51:14;9.80;99.90
1570;DHT22;778;50.120;8.698;2023-11-19T03:53:43;9.80;99.90
1570;DHT22;778;50.120;8.698;2023-11-19T03:56:11;9.80;99.90
1570;DHT22;778;50.120;8.698;2023-11-19T03:58:40;9.90;99.90
1570;DHT22;778;50.120;8.698;2023-11-19T04:01:11;9.90;99.90
1570;DHT22;778;50.120;8.698;2023-11-19T04:03:42;9.90;99.90
1570;DHT22;778;50.120;8.698;2023-11-19T04:06:14;9.90;99.90
1570;DHT22;778;50.120;8.698;2023-11-19T04:08:42;9.90;99.90
1570;DHT22;778;50.120;8.698;2023-11-19T04:11:10;10.00;99.90
1570;DHT22;778;50.120;8.698;2023-11-19T04:13:39;10.00;99.90
1570;DHT22;778;50.120;8.698;2023-11-19T04:16:07;10.00;99.90
1570;DHT22;778;50.120;8.698;2023-11-19T04:18:36;10.00;99.90
1570;DHT22;778;50.120;8.698;2023-11-19T04:21:07;10.00;99.90
1570;DHT22;778;50.120;8.698;2023-11-19T04:23:35;10.00;99.90
1570;DHT22;778;50.120;8.698;2023-11-19T04:26:04;10.00;99.90
1570;DHT22;778;50.120;8.698;2023-11-19T04:28:36;10.00;99.90
1570;DHT22;778;50.120;8.698;2023-11-19T04:31:04;10.00;99.90
1570;DHT22;778;50.120;8.698;2023-11-19T04:33:33;10.00;99.90
1570;DHT22;778;50.120;8.698;2023-11-19T04:36:02;10.00;99.90
1570;DHT22;778;50.120;8.698;2023-11-19T04:38:31;10.00;99.90
1570;DHT22;778;50.120;8.698;2023-11-19T04:41:00;10.00;99.90
1570;DHT22;778;50.120;8.698;2023-11-19T04:43:28;10.00;99.90
1570;DHT22;778;50.120;8.698;2023-11-19T04:45:56;10.00;99.90
1570;DHT22;778;50.120;8.698;2023-11-19T04:48:25;10.00;99.90
1570;DHT22;778;50.120;8.698;2023-11-19T04:50:53;10.00;99.90
1570;DHT22;778;50.120;8.698;2023-11-19T04:53:21;10.10;99.90
1570;DHT22;778;50.120;8.698;2023-11-19T04:55:51;10.10;99.90
1570;DHT22;778;50.120;8.698;2023-11-19T04:58:19;10.10;99.90
1570;DHT22;778;50.120;8.698;2023-11-19T05:00:47;10.10;99.90
1570;DHT22;778;50.120;8.698;2023-11-19T05:03:15;10.10;99.90
1570;DHT22;778;50.120;8.698;2023-11-19T05:05:44;10.20;99.90
1570;DHT22;778;50.120;8.698;2023-11-19T05:08:12;10.20;99.90
1570;DHT22;778;50.120;8.698;2023-11-19T05:10:41;10.20;99.90
1570;DHT22;778;50.120;8.698;2023-11-19T05:13:10;10.20;99.90
1570;DHT22;778;50.120;8.698;2023-11-19T05:15:39;10.20;99.90
1570;DHT22;778;50.120;8.698;2023-11-19T05:18:07;10.20;99.90
1570;DHT22;778;50.120;8.698;2023-11-19T05:20:36;10.30;99.90
1570;DHT22;778;50.120;8.698;2023-11-19T05:23:04;10.20;99.90
1570;DHT22;778;50.120;8.698;2023-11-19T05:25:32;10.30;99.90
1570;DHT22;778;50.120;8.698;2023-11-19T05:28:00;10.20;99.90
1570;DHT22;778;50.120;8.698;2023-11-19T05:30:30;10.20;99.90
1570;DHT22;778;50.120;8.698;2023-11-19T05:32:58;10.30;99.90
1570;DHT22;778;50.120;8.698;2023-11-19T05:35:27;10.30;99.90
1570;DHT22;778;50.120;8.698;2023-11-19T05:37:55;10.30;99.90
1570;DHT22;778;50.120;8.698;2023-11-19T05:40:24;10.40;99.90
1570;DHT22;778;50.120;8.698;2023-11-19T05:42:52;10.40;99.90
1570;DHT22;778;50.120;8.698;2023-11-19T05:45:20;10.40;99.90
1570;DHT22;778;50.120;8.698;2023-11-19T05:47:51;10.40;99.90
1570;DHT22;778;50.120;8.698;2023-11-19T05:50:19;10.40;99.90
1570;DHT22;778;50.120;8.698;2023-11-19T05:52:47;10.30;99.90
1570;DHT22;778;50.120;8.698;2023-11-19T05:55:16;10.30;99.90
1570;DHT22;778;50.120;8.698;2023-11-19T05:57:44;10.30;99.90
1570;DHT22;778;50.120;8.698;2023-11-19T06:00:13;10.40;99.90
1570;DHT22;778;50.120;8.698;2023-11-19T06:02:43;10.40;99.90
1570;DHT22;778;50.120;8.698;2023-11-19T06:05:12;10.40;99.90
1570;DHT22;778;50.120;8.698;2023-11-19T06:07:41;10.40;99.90
1570;DHT22;778;50.120;8.698;2023-11-19T06:10:09;10.50;99.90
1570;DHT22;778;50.120;8.698;2023-11-19T06:12:39;10.50;99.90
1570;DHT22;778;50.120;8.698;2023-11-19T06:15:09;10.50;99.90
1570;DHT22;778;50.120;8.698;2023-11-19T06:17:38;10.50;99.90
1570;DHT22;778;50.120;8.698;2023-11-19T06:20:07;10.50;99.90
1570;DHT22;778;50.120;8.698;2023-11-19T06:22:40;10.50;99.90
1570;DHT22;778;50.120;8.698;2023-11-19T06:25:09;10.50;99.90
1570;DHT22;778;50.120;8.698;2023-11-19T06:27:39;10.50;99.90
1570;DHT22;778;50.120;8.698;2023-11-19T06:30:08;10.50;99.90
1570;DHT22;778;50.120;8.698;2023-11-19T06:32:36;10.50;99.90
1570;DHT22;778;50.120;8.698;2023-11-19T06:35:05;10.50;99.90
1570;DHT22;778;50.120;8.698;2023-11-19T06:37:33;10.50;99.90
1570;DHT22;778;50.120;8.698;2023-11-19T06:40:04;10.50;99.90
1570;DHT22;778;50.120;8.698;2023-11-19T06:42:32;10.60;99.90
1570;DHT22;778;50.120;8.698;2023-11-19T06:45:00;10.60;99.90
1570;DHT22;778;50.120;8.698;2023-11-19T06:47:29;10.60;99.90
1570;DHT22;778;50.120;8.698;2023-11-19T06:49:57;10.60;99.90
1570;DHT22;778;50.120;8.698;2023-11-19T06:52:25;10.60;99.90
1570;DHT22;778;50.120;8.698;2023-11-19T06:54:54;10.70;99.90
1570;DHT22;778;50.120;8.698;2023-11-19T06:57:35;10.70;99.90
1570;DHT22;778;50.120;8.698;2023-11-19T07:00:05;10.70;99.90
1570;DHT22;778;50.120;8.698;2023-11-19T07:02:34;10.70;99.90
1570;DHT22;778;50.120;8.698;2023-11-19T07:05:02;10.70;99.90
1570;DHT22;778;50.120;8.698;2023-11-19T07:07:31;10.70;99.90
1570;DHT22;778;50.120;8.698;2023-11-19T07:10:00;10.80;99.90
1570;DHT22;778;50.120;8.698;2023-11-19T07:12:29;10.80;99.90
1570;DHT22;778;50.120;8.698;2023-11-19T07:14:58;10.80;99.90
1570;DHT22;778;50.120;8.698;2023-11-19T07:17:27;10.80;99.90
1570;DHT22;778;50.120;8.698;2023-11-19T07:19:55;10.90;99.90
1570;DHT22;778;50.120;8.698;2023-11-19T07:22:26;10.90;99.90
1570;DHT22;778;50.120;8.698;2023-11-19T07:24:56;10.90;99.90
1570;DHT22;778;50.120;8.698;2023-11-19T07:27:25;10.90;99.90
1570;DHT22;778;50.120;8.698;2023-11-19T07:29:54;10.90;99.90
1570;DHT22;778;50.120;8.698;2023-11-19T07:32:24;11.00;99.90
1570;DHT22;778;50.120;8.698;2023-11-19T07:34:52;11.00;99.90
1570;DHT22;778;50.120;8.698;2023-11-19T07:37:21;11.00;99.90
1570;DHT22;778;50.120;8.698;2023-11-19T07:39:49;11.10;99.90
1570;DHT22;778;50.120;8.698;2023-11-19T07:42:17;11.10;99.90
1570;DHT22;778;50.120;8.698;2023-11-19T07:44:45;11.10;99.90
1570;DHT22;778;50.120;8.698;2023-11-19T07:47:14;11.10;99.90
1570;DHT22;778;50.120;8.698;2023-11-19T07:49:43;11.10;99.90
1570;DHT22;778;50.120;8.698;2023-11-19T07:52:12;11.10;99.90
1570;DHT22;778;50.120;8.698;2023-11-19T07:54:43;11.10;99.90
1570;DHT22;778;50.120;8.698;2023-11-19T07:57:11;11.20;99.90
1570;DHT22;778;50.120;8.698;2023-11-19T07:59:39;11.20;99.90
1570;DHT22;778;50.120;8.698;2023-11-19T08:02:08;11.20;99.90
1570;DHT22;778;50.120;8.698;2023-11-19T08:04:36;11.20;99.90
1570;DHT22;778;50.120;8.698;2023-11-19T08:07:08;11.30;99.90
1570;DHT22;778;50.120;8.698;2023-11-19T08:09:36;11.30;99.90
1570;DHT22;778;50.120;8.698;2023-11-19T08:12:05;11.30;99.90
1570;DHT22;778;50.120;8.698;2023-11-19T08:14:34;11.30;99.90
1570;DHT22;778;50.120;8.698;2023-11-19T08:17:03;11.30;99.90
1570;DHT22;778;50.120;8.698;2023-11-19T08:19:31;11.30;99.90
1570;DHT22;778;50.120;8.698;2023-11-19T08:21:59;11.40;99.90
1570;DHT22;778;50.120;8.698;2023-11-19T08:24:29;11.40;99.90
1570;DHT22;778;50.120;8.698;2023-11-19T08:26:57;11.50;99.90
1570;DHT22;778;50.120;8.698;2023-11-19T08:29:28;11.50;99.90
1570;DHT22;778;50.120;8.698;2023-11-19T08:31:56;11.50;99.90
1570;DHT22;778;50.120;8.698;2023-11-19T08:34:25;11.50;99.90
1570;DHT22;778;50.120;8.698;2023-11-19T08:36:53;11.60;99.90
1570;DHT22;778;50.120;8.698;2023-11-19T08:39:22;11.60;99.90
1570;DHT22;778;50.120;8.698;2023-11-19T08:41:52;11.70;99.90
1570;DHT22;778;50.120;8.698;2023-11-19T08:44:22;11.70;99.90
1570;DHT22;778;50.120;8.698;2023-11-19T08:46:50;11.70;99.90
1570;DHT22;778;50.120;8.698;2023-11-19T08:49:19;11.70;99.90
1570;DHT22;778;50.120;8.698;2023-11-19T08:51:47;11.80;99.90
1570;DHT22;778;50.120;8.698;2023-11-19T08:54:15;11.90;99.90
1570;DHT22;778;50.120;8.698;2023-11-19T08:56:43;11.90;99.90
1570;DHT22;778;50.120;8.698;2023-11-19T08:59:13;12.00;99.90
1570;DHT22;778;50.120;8.698;2023-11-19T09:01:44;12.00;99.90
1570;DHT22;778;50.120;8.698;2023-11-19T09:04:12;12.00;99.90
1570;DHT22;778;50.120;8.698;2023-11-19T09:06:41;12.10;99.90
1570;DHT22;778;50.120;8.698;2023-11-19T09:09:09;12.10;99.90
1570;DHT22;778;50.120;8.698;2023-11-19T09:11:37;12.20;99.90
1570;DHT22;778;50.120;8.698;2023-11-19T09:14:06;12.10;99.90
1570;DHT22;778;50.120;8.698;2023-11-19T09:16:35;12.10;99.90
1570;DHT22;778;50.120;8.698;2023-11-19T09:19:03;12.20;99.90
1570;DHT22;778;50.120;8.698;2023-11-19T09:21:32;12.20;99.90
1570;DHT22;778;50.120;8.698;2023-11-19T09:24:05;12.20;99.90
1570;DHT22;778;50.120;8.698;2023-11-19T09:26:34;12.30;99.90
1570;DHT22;778;50.120;8.698;2023-11-19T09:29:06;12.40;99.90
1570;DHT22;778;50.120;8.698;2023-11-19T09:31:37;12.60;99.90
1570;DHT22;778;50.120;8.698;2023-11-19T09:34:06;12.70;99.90
1570;DHT22;778;50.120;8.698;2023-11-19T09:36:34;12.80;99.90
1570;DHT22;778;50.120;8.698;2023-11-19T09:39:03;12.90;99.90
1570;DHT22;778;50.120;8.698;2023-11-19T09:41:32;13.00;99.90
1570;DHT22;778;50.120;8.698;2023-11-19T09:44:01;13.10;99.90
1570;DHT22;778;50.120;8.698;2023-11-19T09:46:30;13.30;99.90
1570;DHT22;778;50.120;8.698;2023-11-19T09:49:00;13.40;99.90
1570;DHT22;778;50.120;8.698;2023-11-19T09:51:29;13.60;99.90
1570;DHT22;778;50.120;8.698;2023-11-19T09:53:57;13.70;99.90
1570;DHT22;778;50.120;8.698;2023-11-19T09:56:26;13.90;99.90
1570;DHT22;778;50.120;8.698;2023-11-19T09:58:56;14.20;99.90
1570;DHT22;778;50.120;8.698;2023-11-19T10:01:25;14.40;99.90
1570;DHT22;778;50.120;8.698;2023-11-19T10:03:55;14.80;99.90
1570;DHT22;778;50.120;8.698;2023-11-19T10:06:26;15.40;99.90
1570;DHT22;778;50.120;8.698;2023-11-19T10:08:55;15.80;99.90
1570;DHT22;778;50.120;8.698;2023-11-19T10:11:23;16.20;99.90
1570;DHT22;778;50.120;8.698;2023-11-19T10:13:53;16.40;99.90
1570;DHT22;778;50.120;8.698;2023-11-19T10:16:28;16.60;99.90
1570;DHT22;778;50.120;8.698;2023-11-19T10:18:57;16.70;99.90
1570;DHT22;778;50.120;8.698;2023-11-19T10:21:27;16.90;99.90
1570;DHT22;778;50.120;8.698;2023-11-19T10:23:56;17.10;99.90
1570;DHT22;778;50.120;8.698;2023-11-19T10:26:27;17.40;99.90
1570;DHT22;778;50.120;8.698;2023-11-19T10:28:56;17.50;99.90
1570;DHT22;778;50.120;8.698;2023-11-19T10:31:24;17.50;99.90
1570;DHT22;778;50.120;8.698;2023-11-19T10:33:53;17.60;99.90
1570;DHT22;778;50.120;8.698;2023-11-19T10:36:22;17.60;99.90
1570;DHT22;778;50.120;8.698;2023-11-19T10:38:56;17.70;99.90
1570;DHT22;778;50.120;8.698;2023-11-19T10:41:28;17.80;99.90
1570;DHT22;778;50.120;8.698;2023-11-19T10:43:57;17.70;99.90
1570;DHT22;778;50.120;8.698;2023-11-19T10:46:37;17.80;99.90
1570;DHT22;778;50.120;8.698;2023-11-19T10:49:06;18.00;99.90
1570;DHT22;778;50.120;8.698;2023-11-19T10:51:35;18.20;99.90
1570;DHT22;778;50.120;8.698;2023-11-19T10:54:05;17.90;99.90
1570;DHT22;778;50.120;8.698;2023-11-19T10:56:34;17.80;99.90
1570;DHT22;778;50.120;8.698;2023-11-19T10:59:02;17.70;99.90
1570;DHT22;778;50.120;8.698;2023-11-19T11:01:52;17.60;99.90
1570;DHT22;778;50.120;8.698;2023-11-19T11:04:24;17.50;99.90
1570;DHT22;778;50.120;8.698;2023-11-19T11:06:54;17.70;99.90
1570;DHT22;778;50.120;8.698;2023-11-19T11:09:26;17.70;99.90
1570;DHT22;778;50.120;8.698;2023-11-19T11:11:55;18.00;99.90
1570;DHT22;778;50.120;8.698;2023-11-19T11:14:25;17.90;99.90
1570;DHT22;778;50.120;8.698;2023-11-19T11:16:56;17.60;99.90
1570;DHT22;778;50.120;8.698;2023-11-19T11:19:24;17.70;99.90
1570;DHT22;778;50.120;8.698;2023-11-19T11:21:54;17.40;99.90
1570;DHT22;778;50.120;8.698;2023-11-19T11:24:48;17.30;99.90
1570;DHT22;778;50.120;8.698;2023-11-19T11:27:45;17.40;99.90
1570;DHT22;778;50.120;8.698;2023-11-19T11:30:35;17.40;99.90
1570;DHT22;778;50.120;8.698;2023-11-19T11:33:20;17.10;99.90
1570;DHT22;778;50.120;8.698;2023-11-19T11:35:58;17.10;99.90
1570;DHT22;778;50.120;8.698;2023-11-19T11:38:30;16.90;99.90
1570;DHT22;778;50.120;8.698;2023-11-19T11:41:17;16.50;99.90
1570;DHT22;778;50.120;8.698;2023-11-19T11:43:48;16.40;99.90
1570;DHT22;778;50.120;8.698;2023-11-19T11:49:28;16.60;99.90
1570;DHT22;778;50.120;8.698;2023-11-19T11:52:03;16.70;99.90
1570;DHT22;778;50.120;8.698;2023-11-19T11:54:32;16.90;99.90
1570;DHT22;778;50.120;8.698;2023-11-19T11:57:06;16.90;99.90
1570;DHT22;778;50.120;8.698;2023-11-19T11:59:48;16.60;99.90
1570;DHT22;778;50.120;8.698;2023-11-19T12:02:17;16.50;99.90
1570;DHT22;778;50.120;8.698;2023-11-19T12:04:49;16.10;99.90
1570;DHT22;778;50.120;8.698;2023-11-19T12:07:19;16.00;99.90
1570;DHT22;778;50.120;8.698;2023-11-19T12:09:52;15.90;99.90
1570;DHT22;778;50.120;8.698;2023-11-19T12:12:27;15.90;99.90
1570;DHT22;778;50.120;8.698;2023-11-19T12:15:06;15.90;99.90
1570;DHT22;778;50.120;8.698;2023-11-19T12:17:47;15.80;99.90
1570;DHT22;778;50.120;8.698;2023-11-19T12:20:19;15.70;99.90
1570;DHT22;778;50.120;8.698;2023-11-19T12:22:51;15.60;99.90
1570;DHT22;778;50.120;8.698;2023-11-19T12:25:20;15.40;99.90
1570;DHT22;778;50.120;8.698;2023-11-19T12:27:51;15.60;99.90
1570;DHT22;778;50.120;8.698;2023-11-19T12:30:22;15.80;99.90
1570;DHT22;778;50.120;8.698;2023-11-19T12:32:51;16.00;99.90
1570;DHT22;778;50.120;8.698;2023-11-19T12:35:21;16.20;99.90
1570;DHT22;778;50.120;8.698;2023-11-19T12:37:50;16.30;99.90
1570;DHT22;778;50.120;8.698;2023-11-19T12:40:20;16.30;99.90
1570;DHT22;778;50.120;8.698;2023-11-19T12:42:49;16.40;99.90
1570;DHT22;778;50.120;8.698;2023-11-19T12:45:18;16.50;99.90
1570;DHT22;778;50.120;8.698;2023-11-19T12:47:48;16.50;99.90
1570;DHT22;778;50.120;8.698;2023-11-19T12:50:19;16.50;99.90
1570;DHT22;778;50.120;8.698;2023-11-19T12:52:55;16.60;99.90
1570;DHT22;778;50.120;8.698;2023-11-19T12:55:25;16.70;99.90
1570;DHT22;778;50.120;8.698;2023-11-19T12:57:56;16.80;99.90
1570;DHT22;778;50.120;8.698;2023-11-19T13:00:27;16.90;99.90
1570;DHT22;778;50.120;8.698;2023-11-19T13:02:57;16.90;99.90
1570;DHT22;778;50.120;8.698;2023-11-19T13:05:28;16.80;99.90
1570;DHT22;778;50.120;8.698;2023-11-19T13:07:59;16.90;99.90
1570;DHT22;778;50.120;8.698;2023-11-19T13:10:28;17.10;99.90
1570;DHT22;778;50.120;8.698;2023-11-19T13:13:03;17.00;99.90
1570;DHT22;778;50.120;8.698;2023-11-19T13:15:35;17.00;99.90
1570;DHT22;778;50.120;8.698;2023-11-19T13:18:03;17.10;99.90
1570;DHT22;778;50.120;8.698;2023-11-19T13:20:31;17.10;99.90
1570;DHT22;778;50.120;8.698;2023-11-19T13:23:03;17.10;99.90
1570;DHT22;778;50.120;8.698;2023-11-19T13:25:32;16.90;99.90
1570;DHT22;778;50.120;8.698;2023-11-19T13:28:00;16.80;99.90
1570;DHT22;778;50.120;8.698;2023-11-19T13:30:29;16.80;99.90
1570;DHT22;778;50.120;8.698;2023-11-19T13:32:58;16.70;99.90
1570;DHT22;778;50.120;8.698;2023-11-19T13:35:28;16.60;99.90
1570;DHT22;778;50.120;8.698;2023-11-19T13:37:56;16.50;99.90
1570;DHT22;778;50.120;8.698;2023-11-19T13:40:25;16.30;99.90
1570;DHT22;778;50.120;8.698;2023-11-19T13:42:53;16.10;99.90
1570;DHT22;778;50.120;8.698;2023-11-19T13:45:22;16.00;99.90
1570;DHT22;778;50.120;8.698;2023-11-19T13:47:50;15.90;99.90
1570;DHT22;778;50.120;8.698;2023-11-19T13:50:20;15.90;99.90
1570;DHT22;778;50.120;8.698;2023-11-19T13:52:49;16.00;99.90
1570;DHT22;778;50.120;8.698;2023-11-19T13:55:18;15.90;99.90
1570;DHT22;778;50.120;8.698;2023-11-19T13:57:46;15.90;99.90
1570;DHT22;778;50.120;8.698;2023-11-19T14:00:16;15.90;99.90
1570;DHT22;778;50.120;8.698;2023-11-19T14:02:46;16.00;99.90
1570;DHT22;778;50.120;8.698;2023-11-19T14:05:16;16.00;99.90
1570;DHT22;778;50.120;8.698;2023-11-19T14:08:05;15.90;99.90
1570;DHT22;778;50.120;8.698;2023-11-19T14:10:51;15.90;99.90
1570;DHT22;778;50.120;8.698;2023-11-19T14:13:22;15.70;99.90
1570;DHT22;778;50.120;8.698;2023-11-19T14:15:51;15.70;99.90
1570;DHT22;778;50.120;8.698;2023-11-19T14:18:19;15.70;99.90
1570;DHT22;778;50.120;8.698;2023-11-19T14:20:48;15.70;99.90
1570;DHT22;778;50.120;8.698;2023-11-19T14:23:18;15.60;99.90
1570;DHT22;778;50.120;8.698;2023-11-19T14:25:46;15.50;99.90
1570;DHT22;778;50.120;8.698;2023-11-19T14:28:14;15.50;99.90
1570;DHT22;778;50.120;8.698;2023-11-19T14:30:42;15.40;99.90
1570;DHT22;778;50.120;8.698;2023-11-19T14:33:12;15.40;99.90
1570;DHT22;778;50.120;8.698;2023-11-19T14:35:40;15.30;99.90
1570;DHT22;778;50.120;8.698;2023-11-19T14:38:08;15.30;99.90
1570;DHT22;778;50.120;8.698;2023-11-19T14:40:38;15.20;99.90
1570;DHT22;778;50.120;8.698;2023-11-19T14:43:08;15.10;99.90
1570;DHT22;778;50.120;8.698;2023-11-19T14:45:38;15.10;99.90
1570;DHT22;778;50.120;8.698;2023-11-19T14:48:15;15.00;99.90
1570;DHT22;778;50.120;8.698;2023-11-19T14:50:44;15.00;99.90
1570;DHT22;778;50.120;8.698;2023-11-19T14:53:13;15.00;99.90
1570;DHT22;778;50.120;8.698;2023-11-19T14:55:43;14.90;99.90
1570;DHT22;778;50.120;8.698;2023-11-19T14:58:11;14.90;99.90
1570;DHT22;778;50.120;8.698;2023-11-19T15:00:43;14.90;99.90
1570;DHT22;778;50.120;8.698;2023-11-19T15:03:13;14.80;99.90
1570;DHT22;778;50.120;8.698;2023-11-19T15:05:43;14.90;99.90
1570;DHT22;778;50.120;8.698;2023-11-19T15:08:12;14.80;99.90
1570;DHT22;778;50.120;8.698;2023-11-19T15:10:44;14.80;99.90
1570;DHT22;778;50.120;8.698;2023-11-19T15:13:13;14.80;99.90
1570;DHT22;778;50.120;8.698;2023-11-19T15:15:42;14.80;99.90
1570;DHT22;778;50.120;8.698;2023-11-19T15:18:10;14.80;99.90
1570;DHT22;778;50.120;8.698;2023-11-19T15:20:38;14.70;99.90
1570;DHT22;778;50.120;8.698;2023-11-19T15:23:07;14.70;99.90
1570;DHT22;778;50.120;8.698;2023-11-19T15:25:36;14.70;99.90
1570;DHT22;778;50.120;8.698;2023-11-19T15:28:06;14.70;99.90
1570;DHT22;778;50.120;8.698;2023-11-19T15:30:34;14.60;99.90
1570;DHT22;778;50.120;8.698;2023-11-19T15:33:02;14.60;99.90
1570;DHT22;778;50.120;8.698;2023-11-19T15:35:31;14.60;99.90
1570;DHT22;778;50.120;8.698;2023-11-19T15:37:59;14.60;99.90
1570;DHT22;778;50.120;8.698;2023-11-19T15:40:27;14.60;99.90
1570;DHT22;778;50.120;8.698;2023-11-19T15:42:56;14.60;99.90
1570;DHT22;778;50.120;8.698;2023-11-19T15:45:26;14.60;99.90
1570;DHT22;778;50.120;8.698;2023-11-19T15:47:54;14.60;99.90
1570;DHT22;778;50.120;8.698;2023-11-19T15:50:22;14.60;99.90
1570;DHT22;778;50.120;8.698;2023-11-19T15:52:51;14.50;99.90
1570;DHT22;778;50.120;8.698;2023-11-19T15:55:19;14.50;99.90
1570;DHT22;778;50.120;8.698;2023-11-19T15:57:47;14.50;99.90
1570;DHT22;778;50.120;8.698;2023-11-19T16:00:16;14.50;99.90
1570;DHT22;778;50.120;8.698;2023-11-19T16:02:49;14.50;99.90
1570;DHT22;778;50.120;8.698;2023-11-19T16:05:18;14.40;99.90
1570;DHT22;778;50.120;8.698;2023-11-19T16:07:46;14.40;99.90
1570;DHT22;778;50.120;8.698;2023-11-19T16:10:15;14.40;99.90
1570;DHT22;778;50.120;8.698;2023-11-19T16:12:50;14.50;99.90
1570;DHT22;778;50.120;8.698;2023-11-19T16:15:18;14.40;99.90
1570;DHT22;778;50.120;8.698;2023-11-19T16:17:51;14.30;99.90
1570;DHT22;778;50.120;8.698;2023-11-19T16:20:21;14.30;99.90
1570;DHT22;778;50.120;8.698;2023-11-19T16:22:50;14.30;99.90
1570;DHT22;778;50.120;8.698;2023-11-19T16:25:18;14.30;99.90
1570;DHT22;778;50.120;8.698;2023-11-19T16:27:47;14.30;99.90
1570;DHT22;778;50.120;8.698;2023-11-19T16:30:15;14.30;99.90
1570;DHT22;778;50.120;8.698;2023-11-19T16:32:53;14.30;99.90
1570;DHT22;778;50.120;8.698;2023-11-19T16:35:21;14.20;99.90
1570;DHT22;778;50.120;8.698;2023-11-19T16:37:50;14.10;99.90
1570;DHT22;778;50.120;8.698;2023-11-19T16:40:18;14.00;99.90
1570;DHT22;778;50.120;8.698;2023-11-19T16:42:49;14.00;99.90